createdAt,value
2017-12-11T00:01:53.088Z,94358.19
2017-12-11T00:04:21.659Z,94352.36
2017-12-11T00:06:49.536Z,94354.02
2017-12-11T00:09:17.454Z,94334.02
2017-12-11T00:11:45.376Z,94344.46
2017-12-11T00:14:14.320Z,94360.33
2017-12-11T00:16:42.132Z,94375.74
2017-12-11T00:19:10.119Z,94369.93
2017-12-11T00:21:39.681Z,94384.52
2017-12-11T00:24:07.601Z,94403.72
2017-12-11T00:26:35.640Z,94398.73
2017-12-11T00:29:03.545Z,94384.12
2017-12-11T00:31:31.517Z,94374.97
2017-12-11T00:33:59.486Z,94374.95
2017-12-11T00:36:27.463Z,94375.80
2017-12-11T00:38:57.487Z,94375.80
2017-12-11T00:41:28.215Z,94371.64
2017-12-11T00:43:56.901Z,94367.47
2017-12-11T00:46:24.782Z,94367.87
2017-12-11T00:48:54.245Z,94376.23
2017-12-11T00:51:22.762Z,94393.75
2017-12-11T00:53:50.741Z,94394.16
2017-12-11T00:56:18.712Z,94404.60
2017-12-11T00:58:46.583Z,94416.67
2017-12-11T01:01:14.450Z,94412.11
2017-12-11T01:03:42.428Z,94422.52
2017-12-11T01:06:10.399Z,94443.80
2017-12-11T01:08:38.378Z,94425.88
2017-12-11T01:11:06.352Z,94419.19
2017-12-11T01:13:35.920Z,94419.19
2017-12-11T01:16:05.524Z,94427.11
2017-12-11T01:18:36.303Z,94428.38
2017-12-11T01:21:04.275Z,94439.22
2017-12-11T01:23:32.253Z,94442.13
2017-12-11T01:26:01.342Z,94443.36
2017-12-11T01:28:29.357Z,94448.38
2017-12-11T01:30:57.389Z,94447.11
2017-12-11T01:33:25.159Z,94455.04
2017-12-11T01:35:53.240Z,94471.73
2017-12-11T01:38:21.100Z,94462.98
2017-12-11T01:40:49.077Z,94461.30
2017-12-11T01:43:17.009Z,94472.97
2017-12-11T01:45:45.032Z,94482.56
2017-12-11T01:48:12.973Z,94477.56
2017-12-11T01:50:40.971Z,94487.14
2017-12-11T01:53:11.738Z,94483.38
2017-12-11T01:55:39.687Z,94489.23
2017-12-11T01:58:08.307Z,94487.55
2017-12-11T02:00:36.132Z,94486.31
2017-12-11T02:03:03.999Z,94485.89
2017-12-11T02:05:34.429Z,94492.98
2017-12-11T02:08:02.301Z,94495.48
2017-12-11T02:10:30.385Z,94479.23
2017-12-11T02:13:00.019Z,94471.70
2017-12-11T02:15:28.061Z,94461.27
2017-12-11T02:17:55.931Z,94473.36
2017-12-11T02:20:23.711Z,94476.30
2017-12-11T02:22:53.617Z,94475.45
2017-12-11T02:25:24.111Z,94485.05
2017-12-11T02:27:55.479Z,94480.05
2017-12-11T02:30:23.399Z,94478.78
2017-12-11T02:32:51.338Z,94468.79
2017-12-11T02:35:21.824Z,94465.45
2017-12-11T02:37:49.858Z,94469.64
2017-12-11T02:40:18.463Z,94452.13
2017-12-11T02:42:46.299Z,94447.11
2017-12-11T02:45:16.037Z,94447.96
2017-12-11T02:47:47.280Z,94433.79
2017-12-11T02:50:17.785Z,94423.77
2017-12-11T02:52:45.765Z,94415.84
2017-12-11T02:55:13.737Z,94408.34
2017-12-11T02:57:57.063Z,94401.69
2017-12-11T03:00:25.197Z,94395.00
2017-12-11T03:02:56.699Z,94395.84
2017-12-11T03:05:24.564Z,94389.16
2017-12-11T03:07:52.435Z,94378.34
2017-12-11T03:10:21.295Z,94372.50
2017-12-11T03:13:04.763Z,94377.92
2017-12-11T03:15:32.724Z,94373.77
2017-12-11T03:18:03.180Z,94368.34
2017-12-11T03:20:31.229Z,94383.33
2017-12-11T03:22:59.932Z,94379.18
2017-12-11T03:25:27.882Z,94380.41
2017-12-11T03:27:57.702Z,94385.42
2017-12-11T03:30:25.575Z,94385.42
2017-12-11T03:32:53.342Z,94393.75
2017-12-11T03:35:21.826Z,94391.67
2017-12-11T03:37:49.797Z,94386.66
2017-12-11T03:40:17.666Z,94392.52
2017-12-11T03:42:45.649Z,94382.91
2017-12-11T03:45:20.772Z,94382.52
2017-12-11T03:47:52.121Z,94378.77
2017-12-11T03:50:22.613Z,94382.08
2017-12-11T03:52:52.475Z,94383.33
2017-12-11T03:55:20.378Z,94380.02
2017-12-11T03:57:52.385Z,94377.91
2017-12-11T04:00:20.295Z,94363.33
2017-12-11T04:02:48.246Z,94354.16
2017-12-11T04:05:18.694Z,94337.06
2017-12-11T04:07:46.768Z,94333.73
2017-12-11T04:10:15.332Z,94337.08
2017-12-11T04:12:44.933Z,94324.58
2017-12-11T04:15:12.924Z,94344.15
2017-12-11T04:17:40.801Z,94340.82
2017-12-11T04:20:10.120Z,94345.41
2017-12-11T04:22:39.674Z,94372.08
2017-12-11T04:25:07.678Z,94383.33
2017-12-11T04:27:35.752Z,94383.74
2017-12-11T04:30:03.682Z,94401.66
2017-12-11T04:32:31.592Z,94401.66
2017-12-11T04:34:59.467Z,94393.32
2017-12-11T04:37:28.040Z,94395.85
2017-12-11T04:39:55.918Z,94395.43
2017-12-11T04:42:23.792Z,94393.33
2017-12-11T04:44:51.658Z,94383.33
2017-12-11T04:47:20.449Z,94368.33
2017-12-11T04:49:48.432Z,94363.75
2017-12-11T04:52:19.982Z,94357.07
2017-12-11T04:54:48.066Z,94360.41
2017-12-11T04:57:22.894Z,94358.73
2017-12-11T04:59:52.419Z,94355.83
2017-12-11T05:02:20.366Z,94355.00
2017-12-11T05:04:48.336Z,94362.91
2017-12-11T05:07:18.156Z,94354.59
2017-12-11T05:09:46.126Z,94353.31
2017-12-11T05:12:14.755Z,94347.09
2017-12-11T05:14:42.544Z,94345.81
2017-12-11T05:17:10.652Z,94344.98
2017-12-11T05:19:38.530Z,94338.73
2017-12-11T05:22:08.020Z,94339.14
2017-12-11T05:24:36.813Z,94335.41
2017-12-11T05:27:04.621Z,94319.98
2017-12-11T05:29:32.474Z,94322.07
2017-12-11T05:32:00.448Z,94322.07
2017-12-11T05:34:29.060Z,94317.48
2017-12-11T05:36:57.022Z,94317.91
2017-12-11T05:39:26.562Z,94327.48
2017-12-11T05:41:55.584Z,94321.23
2017-12-11T05:44:23.346Z,94313.72
2017-12-11T05:46:51.346Z,94309.98
2017-12-11T05:49:19.222Z,94314.97
2017-12-11T05:51:49.686Z,94297.07
2017-12-11T05:54:17.720Z,94295.80
2017-12-11T05:56:45.688Z,94291.63
2017-12-11T05:59:19.397Z,94301.23
2017-12-11T06:01:48.000Z,94307.49
2017-12-11T06:04:16.760Z,94307.07
2017-12-11T06:06:44.644Z,94300.82
2017-12-11T06:09:14.352Z,94303.31
2017-12-11T06:11:42.427Z,94297.07
2017-12-11T06:14:12.345Z,94285.83
2017-12-11T06:16:42.260Z,94285.83
2017-12-11T06:19:10.234Z,94278.32
2017-12-11T06:21:40.152Z,94279.97
2017-12-11T06:24:08.120Z,94270.82
2017-12-11T06:26:36.209Z,94269.14
2017-12-11T06:29:04.168Z,94264.98
2017-12-11T06:31:32.035Z,94260.80
2017-12-11T06:33:59.954Z,94254.96
2017-12-11T06:36:27.884Z,94252.89
2017-12-11T06:38:57.594Z,94256.22
2017-12-11T06:41:25.668Z,94264.56
2017-12-11T06:43:53.763Z,94258.30
2017-12-11T06:46:22.861Z,94255.80
2017-12-11T06:48:52.331Z,94261.63
2017-12-11T06:51:21.931Z,94267.90
2017-12-11T06:53:49.942Z,94270.39
2017-12-11T06:56:19.561Z,94261.63
2017-12-11T06:58:48.840Z,94252.88
2017-12-11T07:14:17.523Z,94215.80
2017-12-11T07:16:45.989Z,94244.95
2017-12-11T07:19:15.693Z,94236.21
2017-12-11T07:21:44.303Z,94235.38
2017-12-11T07:24:12.275Z,94279.13
2017-12-11T07:26:40.154Z,94219.11
2017-12-11T07:29:10.368Z,94210.33
2017-12-11T07:31:38.167Z,94202.43
2017-12-11T07:34:06.109Z,94183.65
2017-12-11T07:36:35.977Z,94172.83
2017-12-11T07:39:06.552Z,94161.97
2017-12-11T07:41:34.521Z,94166.56
2017-12-11T07:44:02.763Z,94154.87
2017-12-11T07:46:32.509Z,94176.11
2017-12-11T07:49:02.328Z,94158.17
2017-12-11T07:51:30.483Z,94145.69
2017-12-11T07:53:58.427Z,94141.91
2017-12-11T07:56:27.915Z,94151.89
2017-12-11T07:58:55.970Z,94184.03
2017-12-11T08:01:27.733Z,94201.11
2017-12-11T08:03:55.588Z,94189.02
2017-12-11T08:06:24.379Z,94207.36
2017-12-11T08:08:53.949Z,94201.11
2017-12-11T08:11:21.857Z,94176.93
2017-12-11T08:13:49.652Z,94189.42
2017-12-11T08:16:25.761Z,94190.23
2017-12-11T08:18:53.665Z,94189.84
2017-12-11T08:21:23.001Z,94175.66
2017-12-11T08:23:54.515Z,94178.98
2017-12-11T08:26:22.591Z,94186.88
2017-12-11T08:28:52.627Z,94165.20
2017-12-11T08:31:26.619Z,94172.71
2017-12-11T08:33:54.496Z,94176.86
2017-12-11T08:36:23.797Z,94167.27
2017-12-11T08:38:53.057Z,94166.82
2017-12-11T08:41:22.603Z,94162.23
2017-12-11T08:43:50.596Z,94168.45
2017-12-11T08:46:24.706Z,94160.53
2017-12-11T08:48:53.407Z,94150.51
2017-12-11T08:51:23.829Z,94152.56
2017-12-11T08:53:53.429Z,94140.46
2017-12-11T08:56:23.109Z,94130.86
2017-12-11T08:58:52.715Z,94127.49
2017-12-11T09:01:33.613Z,94119.97
2017-12-11T09:04:01.581Z,94109.95
2017-12-11T09:06:29.757Z,94104.09
2017-12-11T09:08:59.223Z,94098.65
2017-12-11T09:11:27.345Z,94099.86
2017-12-11T09:13:55.210Z,94096.07
2017-12-11T09:16:24.107Z,94095.19
2017-12-11T09:18:52.285Z,94085.55
2017-12-11T09:21:21.280Z,94078.81
2017-12-11T09:23:50.268Z,94071.22
2017-12-11T09:26:27.660Z,94059.88
2017-12-11T09:28:57.781Z,94052.70
2017-12-11T09:31:25.723Z,94041.42
2017-12-11T09:33:53.680Z,94043.05
2017-12-11T09:36:23.876Z,94035.55
2017-12-11T09:38:54.345Z,94028.41
2017-12-11T09:41:22.359Z,94020.91
2017-12-11T09:43:52.926Z,94012.50
2017-12-11T09:46:23.733Z,93997.47
2017-12-11T09:48:54.424Z,94001.65
2017-12-11T09:51:23.561Z,93995.80
2017-12-11T09:53:51.445Z,93981.11
2017-12-11T09:56:19.401Z,93968.14
2017-12-11T09:58:47.244Z,93965.64
2017-12-11T10:01:17.904Z,93971.45
2017-12-11T10:03:48.546Z,93958.89
2017-12-11T10:06:17.936Z,93953.84
2017-12-11T10:08:45.912Z,93953.81
2017-12-11T10:11:13.991Z,93945.04
2017-12-11T10:13:41.972Z,93950.86
2017-12-11T10:16:10.526Z,93944.55
2017-12-11T10:18:41.400Z,93929.12
2017-12-11T10:21:09.370Z,93937.05
2017-12-11T10:23:38.026Z,93926.61
2017-12-11T10:26:06.027Z,93918.22
2017-12-11T10:28:34.004Z,93914.91
2017-12-11T10:31:01.972Z,93913.66
2017-12-11T10:33:29.816Z,93900.67
2017-12-11T10:35:59.503Z,93868.06
2017-12-11T10:38:31.311Z,93897.27
2017-12-11T10:40:59.190Z,93875.90
2017-12-11T10:43:28.640Z,93849.87
2017-12-11T10:46:16.000Z,93872.84
2017-12-11T10:48:43.943Z,93865.23
2017-12-11T10:51:18.296Z,93848.05
2017-12-11T10:53:46.264Z,93873.88
2017-12-11T10:56:14.236Z,93850.00
2017-12-11T10:58:42.212Z,93871.18
2017-12-11T11:01:12.025Z,93887.34
2017-12-11T11:03:42.508Z,93859.69
2017-12-11T11:06:12.990Z,93851.68
2017-12-11T11:08:40.960Z,93846.93
2017-12-11T11:11:08.939Z,93851.31
2017-12-11T11:13:39.570Z,93846.97
2017-12-11T11:16:07.647Z,93823.79
2017-12-11T11:18:37.106Z,93824.04
2017-12-11T11:21:05.340Z,93841.55
2017-12-11T11:23:33.304Z,93834.44
2017-12-11T11:26:01.478Z,93834.89
2017-12-11T11:28:30.086Z,93824.88
2017-12-11T11:30:58.038Z,93808.97
2017-12-11T11:33:28.056Z,93810.52
2017-12-11T11:35:56.745Z,93836.36
2017-12-11T11:38:24.823Z,93824.98
2017-12-11T11:40:54.385Z,93806.08
2017-12-11T11:43:22.946Z,93809.84
2017-12-11T11:45:50.882Z,93797.32
2017-12-11T11:48:18.957Z,93834.16
2017-12-11T11:50:47.044Z,93812.81
2017-12-11T11:53:16.886Z,93803.53
2017-12-11T11:55:44.932Z,93816.51
2017-12-11T11:58:12.905Z,93821.67
2017-12-11T12:00:42.518Z,93822.13
2017-12-11T12:03:10.626Z,93825.45
2017-12-11T12:05:38.659Z,93823.80
2017-12-11T12:08:06.627Z,93802.10
2017-12-11T12:10:35.527Z,93809.22
2017-12-11T12:13:03.504Z,93824.25
2017-12-11T12:15:34.698Z,93824.29
2017-12-11T12:18:02.625Z,93824.78
2017-12-11T12:20:32.438Z,93817.77
2017-12-11T12:23:03.657Z,93817.38
2017-12-11T12:25:31.751Z,93810.72
2017-12-11T12:27:59.823Z,93811.59
2017-12-11T12:30:30.772Z,93807.85
2017-12-11T12:32:58.741Z,93812.48
2017-12-11T12:35:34.894Z,93815.45
2017-12-11T12:38:02.869Z,93815.00
2017-12-11T12:40:37.045Z,93813.75
2017-12-11T12:43:06.649Z,93802.09
2017-12-11T12:45:34.668Z,93795.44
2017-12-11T12:48:02.949Z,93797.53
2017-12-11T12:50:30.803Z,93792.05
2017-12-11T12:53:00.832Z,93766.56
2017-12-11T12:55:29.523Z,93778.28
2017-12-11T12:57:57.701Z,93787.87
2017-12-11T13:00:25.787Z,93767.78
2017-12-11T13:02:53.699Z,93780.33
2017-12-11T13:05:21.723Z,93762.31
2017-12-11T13:07:53.595Z,93763.95
2017-12-11T13:10:21.658Z,93743.05
2017-12-11T13:12:55.602Z,93748.49
2017-12-11T13:15:23.955Z,93735.14
2017-12-11T13:17:55.523Z,93745.56
2017-12-11T13:20:24.318Z,93746.41
2017-12-11T13:22:52.281Z,93749.79
2017-12-11T13:25:20.147Z,93749.41
2017-12-11T13:30:32.455Z,93745.32
2017-12-11T13:33:01.363Z,93737.41
2017-12-11T13:35:29.335Z,93739.95
2017-12-11T13:37:57.711Z,93751.70
2017-12-11T13:40:25.689Z,93727.05
2017-12-11T13:42:53.653Z,93728.34
2017-12-11T13:45:23.251Z,93719.63
2017-12-11T13:47:55.635Z,93718.41
2017-12-11T13:50:23.708Z,93723.42
2017-12-11T13:52:53.675Z,93708.40
2017-12-11T13:55:22.409Z,93699.58
2017-12-11T13:57:50.493Z,93705.47
2017-12-11T14:00:18.386Z,93712.97
2017-12-11T14:02:46.438Z,93701.67
2017-12-11T14:05:16.205Z,93696.69
2017-12-11T14:07:44.229Z,93694.17
2017-12-11T14:10:14.793Z,93695.85
2017-12-11T14:12:42.836Z,93697.94
2017-12-11T14:15:10.727Z,93688.32
2017-12-11T14:20:12.107Z,93703.84
2017-12-11T14:22:41.746Z,93703.03
2017-12-11T14:25:12.512Z,93677.97
2017-12-11T14:27:40.447Z,93686.37
2017-12-11T14:30:08.297Z,93647.13
2017-12-11T14:32:37.255Z,93658.45
2017-12-11T14:35:05.229Z,93684.00
2017-12-11T14:37:35.350Z,93707.91
2017-12-11T14:40:04.241Z,93677.03
2017-12-11T14:42:32.239Z,93677.52
2017-12-11T14:45:00.233Z,93680.41
2017-12-11T14:47:28.083Z,93698.73
2017-12-11T14:50:13.517Z,93707.91
2017-12-11T14:52:41.399Z,93717.11
2017-12-11T14:55:09.372Z,93731.33
2017-12-11T14:57:37.447Z,93718.75
2017-12-11T15:00:06.118Z,93711.64
2017-12-11T15:02:34.333Z,93709.23
2017-12-11T15:05:04.139Z,93709.68
2017-12-11T15:07:32.110Z,93704.73
2017-12-11T15:10:01.693Z,93712.25
2017-12-11T15:12:31.405Z,93726.05
2017-12-11T15:14:59.408Z,93726.09
2017-12-11T15:17:27.446Z,93740.75
2017-12-11T15:19:55.388Z,93732.00
2017-12-11T15:22:23.417Z,93739.20
2017-12-11T15:24:53.335Z,93742.20
2017-12-11T15:27:21.408Z,93743.55
2017-12-11T15:29:49.387Z,93751.13
2017-12-11T15:32:18.189Z,93741.55
2017-12-11T15:34:46.250Z,93752.41
2017-12-11T15:37:14.226Z,93751.61
2017-12-11T15:39:42.110Z,93747.45
2017-12-11T15:42:10.371Z,93735.78
2017-12-11T15:44:40.865Z,93737.88
2017-12-11T15:47:09.899Z,93744.11
2017-12-11T15:49:41.513Z,93755.84
2017-12-11T15:52:10.752Z,93747.88
2017-12-11T15:54:38.748Z,93741.61
2017-12-11T15:57:06.701Z,93750.41
2017-12-11T15:59:40.757Z,93749.64
2017-12-11T16:02:08.787Z,93754.70
2017-12-11T16:04:36.770Z,93760.17
2017-12-11T16:07:07.266Z,93749.33
2017-12-11T16:09:40.547Z,93754.80
2017-12-11T16:12:14.808Z,93751.06
2017-12-11T16:14:44.714Z,93754.80
2017-12-11T16:17:12.657Z,93756.86
2017-12-11T16:19:43.388Z,93768.59
2017-12-11T16:22:11.315Z,93795.41
2017-12-11T16:24:42.293Z,93783.32
2017-12-11T16:27:10.230Z,93804.63
2017-12-11T16:29:44.732Z,93820.11
2017-12-11T16:32:14.257Z,93834.78
2017-12-11T16:34:49.988Z,93856.19
2017-12-11T16:37:17.968Z,93885.90
2017-12-11T16:39:45.945Z,93908.41
2017-12-11T16:42:21.295Z,93912.05
2017-12-11T16:44:49.152Z,93916.19
2017-12-11T16:47:21.200Z,93946.64
2017-12-11T16:49:49.149Z,93941.58
2017-12-11T16:52:25.657Z,93957.87
2017-12-11T16:54:55.262Z,93965.42
2017-12-11T16:57:24.532Z,93976.70
2017-12-11T16:59:52.433Z,93971.30
2017-12-11T17:02:20.363Z,93964.19
2017-12-11T17:04:52.097Z,93971.25
2017-12-11T17:07:26.173Z,93956.20
2017-12-11T17:09:54.249Z,93948.31
2017-12-11T17:12:23.860Z,93967.95
2017-12-11T17:14:51.935Z,93991.35
2017-12-11T17:17:26.750Z,94000.54
2017-12-11T17:19:56.477Z,94015.61
2017-12-11T17:22:26.174Z,94019.83
2017-12-11T17:24:54.285Z,94025.69
2017-12-11T17:27:22.848Z,94022.38
2017-12-11T17:29:53.694Z,94031.59
2017-12-11T17:32:24.328Z,94024.06
2017-12-11T17:34:55.509Z,94032.84
2017-12-11T17:37:27.402Z,94028.69
2017-12-11T17:39:56.741Z,94031.63
2017-12-11T17:42:26.213Z,94034.61
2017-12-11T17:44:57.198Z,94041.31
2017-12-11T17:47:29.740Z,94037.15
2017-12-11T17:49:58.141Z,94065.99
2017-12-11T17:52:27.753Z,94083.95
2017-12-11T17:54:56.388Z,94101.95
2017-12-11T17:57:24.521Z,94105.72
2017-12-11T17:59:52.597Z,94113.69
2017-12-11T18:02:23.103Z,94122.47
2017-12-11T18:04:51.400Z,94118.30
2017-12-11T18:07:30.803Z,94130.45
2017-12-11T18:10:04.414Z,94150.09
2017-12-11T18:12:35.262Z,94153.89
2017-12-11T18:15:09.430Z,94162.27
2017-12-11T18:17:44.481Z,94151.45
2017-12-11T18:20:19.697Z,94142.23
2017-12-11T18:22:49.894Z,94162.72
2017-12-11T18:25:19.833Z,94156.91
2017-12-11T18:27:47.874Z,94165.70
2017-12-11T18:30:17.729Z,94164.04
2017-12-11T18:32:47.475Z,94176.58
2017-12-11T18:35:24.932Z,94185.75
2017-12-11T18:37:53.020Z,94198.72
2017-12-11T18:40:21.019Z,94204.95
2017-12-11T18:42:59.437Z,94212.89
2017-12-11T18:45:27.602Z,94205.83
2017-12-11T18:47:56.920Z,94201.66
2017-12-11T18:50:27.331Z,94207.90
2017-12-11T18:52:57.167Z,94233.83
2017-12-11T18:55:27.174Z,94253.45
2017-12-11T18:57:56.161Z,94272.22
2017-12-11T19:00:25.127Z,94265.17
2017-12-11T19:02:53.230Z,94268.52
2017-12-11T19:05:21.218Z,94283.98
2017-12-11T19:07:59.699Z,94291.92
2017-12-11T19:10:30.597Z,94307.34
2017-12-11T19:12:58.635Z,94320.31
2017-12-11T19:15:26.689Z,94326.14
2017-12-11T19:17:56.369Z,94326.97
2017-12-11T19:20:24.513Z,94319.89
2017-12-11T19:22:53.297Z,94307.39
2017-12-11T19:25:21.376Z,94311.98
2017-12-11T19:27:49.501Z,94313.65
2017-12-11T19:30:19.110Z,94324.92
2017-12-11T19:32:47.196Z,94330.36
2017-12-11T19:35:16.818Z,94331.17
2017-12-11T19:37:46.847Z,94333.69
2017-12-11T19:40:15.649Z,94339.55
2017-12-11T19:42:43.853Z,94341.19
2017-12-11T19:45:15.935Z,94355.80
2017-12-11T19:47:45.852Z,94358.30
2017-12-11T19:50:13.980Z,94378.30
2017-12-11T19:52:46.765Z,94380.83
2017-12-11T19:55:14.852Z,94370.80
2017-12-11T19:57:48.324Z,94366.63
2017-12-11T20:00:16.501Z,94360.77
2017-12-11T20:02:46.256Z,94371.60
2017-12-11T20:07:51.485Z,94368.28
2017-12-11T20:10:24.626Z,94378.27
2017-12-11T20:12:52.937Z,94367.84
2017-12-11T20:15:23.875Z,94369.95
2017-12-11T20:17:52.367Z,94396.63
2017-12-11T20:20:20.539Z,94392.47
2017-12-11T20:22:48.774Z,94407.05
2017-12-11T20:25:18.652Z,94425.83
2017-12-11T20:27:46.809Z,94420.84
2017-12-11T20:30:15.092Z,94419.16
2017-12-11T20:32:46.819Z,94421.25
2017-12-11T20:35:18.414Z,94435.42
2017-12-11T20:37:46.787Z,94443.35
2017-12-11T20:40:16.861Z,94440.42
2017-12-11T20:42:59.429Z,94443.35
2017-12-11T20:45:27.685Z,94452.97
2017-12-11T20:47:56.645Z,94458.77
2017-12-11T20:50:32.293Z,94449.20
2017-12-11T20:53:04.574Z,94468.39
2017-12-11T20:55:34.706Z,94481.73
2017-12-11T21:14:23.972Z,94506.77
2017-12-11T21:16:52.895Z,94514.27
2017-12-11T21:19:26.431Z,94518.45
2017-12-11T21:21:58.999Z,94508.03
2017-12-11T21:24:28.675Z,94515.13
2017-12-11T21:26:58.980Z,94513.45
2017-12-11T21:29:28.752Z,94513.44
2017-12-11T21:31:56.863Z,94515.13
2017-12-11T21:34:27.821Z,94518.05
2017-12-11T21:36:56.277Z,94530.55
2017-12-11T21:39:24.229Z,94524.29
2017-12-11T21:41:52.235Z,94528.89
2017-12-11T21:44:21.713Z,94535.16
2017-12-11T21:46:49.608Z,94526.38
2017-12-11T21:49:19.229Z,94523.89
2017-12-11T21:51:57.110Z,94528.89
2017-12-11T21:54:26.098Z,94540.98
2017-12-11T21:56:53.975Z,94551.00
2017-12-11T21:59:25.247Z,94551.00
2017-12-11T22:01:53.407Z,94553.94
2017-12-11T22:04:21.481Z,94563.95
2017-12-11T22:06:49.454Z,94568.13
2017-12-11T22:09:17.373Z,94566.87
2017-12-11T22:11:46.429Z,94569.80
2017-12-11T22:16:48.211Z,94576.91
2017-12-11T22:19:17.185Z,94571.90
2017-12-11T22:21:46.812Z,94588.17
2017-12-11T22:24:17.177Z,94593.99
2017-12-11T22:26:50.710Z,94593.99
2017-12-11T22:29:18.705Z,94614.05
2017-12-11T22:31:46.704Z,94621.16
2017-12-11T22:34:16.473Z,94626.16
2017-12-11T22:36:44.543Z,94632.41
2017-12-11T22:39:12.357Z,94636.59
2017-12-11T22:42:01.959Z,94646.62
2017-12-11T22:44:29.987Z,94646.62
2017-12-11T22:46:58.071Z,94653.27
2017-12-11T22:49:26.777Z,94652.84
2017-12-11T22:51:56.410Z,94668.69
2017-12-11T22:54:24.429Z,94674.97
2017-12-11T22:56:53.838Z,94680.80
2017-12-11T22:59:22.592Z,94692.92
2017-12-11T23:01:50.594Z,94705.04
2017-12-11T23:04:18.567Z,94698.36
2017-12-11T23:06:48.157Z,94711.32
2017-12-11T23:09:17.907Z,94709.66
2017-12-11T23:11:48.544Z,94718.43
2017-12-11T23:14:20.242Z,94724.72
2017-12-11T23:16:48.258Z,94712.16
2017-12-11T23:19:23.030Z,94728.89
2017-12-11T23:21:52.806Z,94727.20
2017-12-11T23:24:20.872Z,94734.32
2017-12-11T23:26:53.364Z,94738.11
2017-12-11T23:29:22.099Z,94748.97
2017-12-11T23:31:50.000Z,94752.31
2017-12-11T23:34:17.973Z,94750.22
